KMGJ/MGJ METAR and TAF weather

Enter ICAO airport designator
Station Type Date Time Source
KMGJ METAR 2023/01/30 09:54 UTC NOAA

KMGJ 300954Z AUTO 00000KT 10SM CLR M02/M03 A3013 RMK AO2 SLP206 T10221033


Station Type Date Time Source
KMGJ Decoded METAR 2023/01/30 09:54 UTC NOAA

MONTGOMERY ORANGE CO AIRPORT, NY, United States (KMGJ) 41-31N 074-16W 108M
Jan 30, 2023 - 04:54 AM EST / 2023.01.30 0954 UTC
Wind: Calm:0
Visibility: 10 mile(s):0
Sky conditions: clear
Temperature: 28.0 F (-2.2 C)
Dew Point: 26.1 F (-3.3 C)
Relative Humidity: 92%
Pressure (altimeter): 30.13 in. Hg (1020 hPa)
ob: KMGJ 300954Z AUTO 00000KT 10SM CLR M02/M03 A3013 RMK AO2 SLP206 T10221033
cycle: 10

Station Type Date Time Source
KMGJ TAF UTC NOAA

Error!

Example: see airport list